createdAt,value
2019-03-05T00:04:18.827Z,98016.95
2019-03-05T00:09:42.066Z,98019.27
2019-03-05T00:15:05.549Z,98007.41
2019-03-05T00:20:26.790Z,98020.77
2019-03-05T00:25:49.827Z,98012.24
2019-03-05T00:31:28.575Z,98009.55
2019-03-05T00:37:00.502Z,97999.58
2019-03-05T00:42:59.657Z,97987.81
2019-03-05T00:49:01.119Z,97995.66
2019-03-05T00:54:59.829Z,97992.65
2019-03-05T01:00:50.376Z,97995.83
2019-03-05T01:06:17.234Z,97984.60
2019-03-05T01:11:43.223Z,97987.09
2019-03-05T01:17:07.377Z,97978.42
2019-03-05T01:22:30.457Z,97978.07
2019-03-05T01:27:51.998Z,97980.31
2019-03-05T01:33:15.013Z,97972.48
2019-03-05T01:38:56.188Z,97962.56
2019-03-05T01:44:19.204Z,97973.47
2019-03-05T01:49:41.801Z,97986.05
2019-03-05T01:55:04.784Z,97959.84
2019-03-05T02:00:26.988Z,97964.78
2019-03-05T02:05:50.177Z,97979.60
2019-03-05T02:11:12.824Z,97968.88
2019-03-05T02:16:35.187Z,97969.98
2019-03-05T02:21:57.099Z,97968.47
2019-03-05T02:28:22.376Z,97976.43
2019-03-05T02:34:18.534Z,97966.87
2019-03-05T02:40:14.499Z,97970.95
2019-03-05T02:45:43.786Z,97966.21
2019-03-05T02:51:56.023Z,97967.59
2019-03-05T02:57:16.335Z,97949.03
2019-03-05T03:02:57.352Z,97965.05
2019-03-05T03:08:20.383Z,97962.77
2019-03-05T03:13:42.138Z,97959.26
2019-03-05T03:19:04.561Z,97966.89
2019-03-05T03:24:28.183Z,97960.45
2019-03-05T03:29:50.688Z,97966.23
2019-03-05T03:35:14.310Z,97962.24
2019-03-05T03:40:35.787Z,97957.77
2019-03-05T03:45:58.016Z,97944.22
2019-03-05T03:51:20.833Z,97957.31
2019-03-05T03:56:42.730Z,97957.69
2019-03-05T04:02:04.325Z,97934.48
2019-03-05T04:07:25.523Z,97927.56
2019-03-05T04:12:49.721Z,97940.90
2019-03-05T04:18:12.399Z,97943.05
2019-03-05T04:23:34.980Z,97945.63
2019-03-05T04:28:56.837Z,97934.48
2019-03-05T04:34:18.554Z,97935.58
2019-03-05T04:39:42.848Z,97955.61
2019-03-05T04:45:50.707Z,97952.23
2019-03-05T04:51:18.887Z,97955.13
2019-03-05T04:56:40.112Z,97949.72
2019-03-05T05:02:27.957Z,97959.05
2019-03-05T05:07:52.784Z,97976.91
2019-03-05T05:13:14.253Z,97951.71
2019-03-05T05:18:35.754Z,97971.13
2019-03-05T05:23:59.948Z,97970.14
2019-03-05T05:29:23.415Z,97969.52
2019-03-05T05:34:44.651Z,97988.60
2019-03-05T05:40:26.382Z,97961.25
2019-03-05T05:45:49.453Z,97986.13
2019-03-05T05:51:13.305Z,97986.23
2019-03-05T05:56:34.609Z,97985.77
2019-03-05T06:01:55.971Z,97982.09
2019-03-05T06:07:17.514Z,97980.85
2019-03-05T06:12:39.937Z,97984.64
2019-03-05T06:18:02.319Z,97995.07
2019-03-05T06:23:24.141Z,98010.09
2019-03-05T06:28:45.565Z,98009.41
2019-03-05T06:34:06.788Z,98008.53
2019-03-05T06:39:28.377Z,98005.05
2019-03-05T06:44:50.572Z,98005.98
2019-03-05T06:50:11.925Z,98003.91
2019-03-05T06:55:33.913Z,98015.07
2019-03-05T07:00:54.976Z,98017.75
2019-03-05T07:06:50.370Z,98003.27
2019-03-05T07:12:34.708Z,98008.09
2019-03-05T07:18:00.766Z,98014.52
2019-03-05T07:24:02.117Z,98003.30
2019-03-05T07:29:23.589Z,98013.52
2019-03-05T07:34:46.581Z,98009.77
2019-03-05T07:40:09.389Z,98017.74
2019-03-05T07:45:30.576Z,98016.09
2019-03-05T07:50:51.983Z,98021.91
2019-03-05T07:56:13.073Z,98025.55
2019-03-05T08:01:36.764Z,98010.59
2019-03-05T08:06:58.650Z,98010.61
2019-03-05T08:12:48.037Z,98007.92
2019-03-05T08:18:09.240Z,98009.47
2019-03-05T08:23:30.870Z,98012.09
2019-03-05T08:28:52.753Z,98015.11
2019-03-05T08:34:14.131Z,98024.32
2019-03-05T08:39:35.972Z,98027.50
2019-03-05T08:44:57.084Z,98030.26
2019-03-05T08:50:18.955Z,98027.02
2019-03-05T08:55:41.001Z,98026.16
2019-03-05T09:01:03.915Z,98015.81
2019-03-05T09:06:24.951Z,98022.27
2019-03-05T09:11:46.262Z,98021.22
2019-03-05T09:17:07.680Z,98020.28
2019-03-05T09:22:29.415Z,98025.42
2019-03-05T09:27:50.627Z,98011.61
2019-03-05T09:33:11.928Z,98010.67
2019-03-05T09:38:34.111Z,98012.36
2019-03-05T09:43:54.955Z,98011.36
2019-03-05T09:49:16.133Z,98004.06
2019-03-05T09:54:37.795Z,98018.91
2019-03-05T10:00:00.361Z,98015.92
2019-03-05T10:05:26.294Z,98008.59
2019-03-05T10:10:47.363Z,98016.36
2019-03-05T10:16:09.703Z,98012.56
2019-03-05T10:21:30.812Z,98003.02
2019-03-05T10:26:53.010Z,98006.39
2019-03-05T10:32:15.174Z,97998.16
2019-03-05T10:37:36.979Z,97993.46
2019-03-05T10:43:08.043Z,97994.97
2019-03-05T10:48:22.991Z,97981.41
2019-03-05T10:53:49.320Z,97977.64
2019-03-05T10:59:10.541Z,97979.53
2019-03-05T11:04:32.273Z,97964.65
2019-03-05T11:09:53.817Z,97969.62
2019-03-05T11:15:21.315Z,97964.72
2019-03-05T11:20:43.007Z,97971.55
2019-03-05T11:26:04.268Z,97951.27
2019-03-05T11:31:25.611Z,97939.27
2019-03-05T11:36:47.067Z,97947.42
2019-03-05T11:42:09.156Z,97948.77
2019-03-05T11:47:33.269Z,97947.23
2019-03-05T11:52:55.449Z,97939.11
2019-03-05T11:58:18.215Z,97938.26
2019-03-05T12:03:39.925Z,97947.42
2019-03-05T12:09:01.514Z,97958.74
2019-03-05T12:14:23.409Z,97941.61
2019-03-05T12:19:44.993Z,97934.09
2019-03-05T12:25:08.054Z,97932.91
2019-03-05T12:30:29.534Z,97935.42
2019-03-05T12:35:50.765Z,97931.72
2019-03-05T12:41:12.212Z,97932.80
2019-03-05T12:46:33.333Z,97930.95
2019-03-05T12:51:55.270Z,97922.65
2019-03-05T12:57:16.865Z,97916.30
2019-03-05T13:02:39.344Z,97926.81
2019-03-05T13:08:02.010Z,97926.65
2019-03-05T13:13:23.717Z,97927.31
2019-03-05T13:18:45.074Z,97931.42
2019-03-05T13:24:10.081Z,97946.07
2019-03-05T13:29:29.580Z,97948.34
2019-03-05T13:34:50.640Z,97945.30
2019-03-05T13:40:14.727Z,97943.44
2019-03-05T13:45:36.470Z,97949.86
2019-03-05T13:51:34.578Z,97948.52
2019-03-05T13:57:32.226Z,97953.43
2019-03-05T14:03:06.780Z,97962.88
2019-03-05T14:09:14.876Z,97958.18
2019-03-05T14:14:36.890Z,97961.87
2019-03-05T14:19:59.211Z,97963.32
2019-03-05T14:25:20.865Z,97963.52
2019-03-05T14:30:42.943Z,97965.86
2019-03-05T14:36:04.459Z,97968.22
2019-03-05T14:41:25.783Z,97965.87
2019-03-05T14:46:52.597Z,97965.33
2019-03-05T14:52:14.037Z,97976.89
2019-03-05T14:57:35.816Z,97987.74
2019-03-05T15:03:00.591Z,97971.24
2019-03-05T15:08:27.424Z,97972.24
2019-03-05T15:13:49.964Z,97968.63
2019-03-05T15:19:20.915Z,97966.02
2019-03-05T15:24:35.123Z,97980.75
2019-03-05T15:29:56.652Z,97985.93
2019-03-05T15:35:18.862Z,98005.59
2019-03-05T15:40:44.473Z,97998.68
2019-03-05T15:46:14.964Z,97999.11
2019-03-05T15:51:37.201Z,98013.05
2019-03-05T15:56:58.931Z,98010.28
2019-03-05T16:02:22.381Z,98014.49
2019-03-05T16:07:48.070Z,98018.03
2019-03-05T16:13:09.856Z,98026.79
2019-03-05T16:18:32.970Z,98023.65
2019-03-05T16:23:56.319Z,98029.27
2019-03-05T16:29:20.957Z,98039.34
2019-03-05T16:35:19.553Z,98036.44
2019-03-05T16:41:20.582Z,98051.86
2019-03-05T16:47:16.163Z,98057.09
2019-03-05T16:52:56.174Z,98068.18
2019-03-05T16:58:48.730Z,98073.19
2019-03-05T17:04:37.258Z,98080.66
2019-03-05T17:10:25.787Z,98090.19
2019-03-05T17:15:46.688Z,98099.72
2019-03-05T17:21:10.821Z,98100.55
2019-03-05T17:26:50.115Z,98118.00
2019-03-05T17:32:13.071Z,98110.45
2019-03-05T17:37:37.704Z,98111.09
2019-03-05T17:43:02.115Z,98114.23
2019-03-05T17:48:27.783Z,98107.12
2019-03-05T17:53:55.583Z,98109.59
2019-03-05T17:59:19.700Z,98119.28
2019-03-05T18:04:44.618Z,98127.98
2019-03-05T18:10:10.000Z,98122.27
2019-03-05T18:15:32.005Z,98131.91
2019-03-05T18:20:53.892Z,98136.05
2019-03-05T18:26:21.161Z,98133.19
2019-03-05T18:31:44.525Z,98132.19
2019-03-05T18:37:06.759Z,98140.05
2019-03-05T18:42:41.492Z,98159.81
2019-03-05T18:48:04.419Z,98188.77
2019-03-05T18:53:51.376Z,98206.58
2019-03-05T18:59:13.999Z,98189.33
2019-03-05T19:04:37.224Z,98204.52
2019-03-05T19:10:02.101Z,98220.56
2019-03-05T19:15:23.516Z,98233.47
2019-03-05T19:20:50.175Z,98233.73
2019-03-05T19:26:21.764Z,98238.28
2019-03-05T19:31:42.915Z,98241.76
2019-03-05T19:37:04.462Z,98258.50
2019-03-05T19:42:31.334Z,98263.37
2019-03-05T19:47:54.282Z,98266.27
2019-03-05T19:53:17.261Z,98280.80
2019-03-05T19:58:42.399Z,98278.08
2019-03-05T20:04:11.473Z,98285.99
2019-03-05T20:09:30.881Z,98289.08
2019-03-05T20:14:59.795Z,98299.79
2019-03-05T20:20:21.460Z,98275.67
2019-03-05T20:25:44.505Z,98258.88
2019-03-05T20:31:10.467Z,98301.04
2019-03-05T20:36:44.774Z,98276.95
2019-03-05T20:42:09.306Z,98267.39
2019-03-05T20:47:33.013Z,98267.25
2019-03-05T20:52:57.203Z,98270.62
2019-03-05T20:58:22.997Z,98258.27
2019-03-05T21:03:46.887Z,98256.45
2019-03-05T21:09:22.887Z,98273.91
2019-03-05T21:14:45.670Z,98270.47
2019-03-05T21:20:09.291Z,98266.16
2019-03-05T21:25:43.730Z,98293.09
2019-03-05T21:31:07.738Z,98288.02
2019-03-05T21:36:34.497Z,98321.44
2019-03-05T21:42:07.406Z,98341.07
2019-03-05T21:47:32.046Z,98319.89
2019-03-05T21:52:56.971Z,98359.95
2019-03-05T21:58:22.153Z,98321.34
2019-03-05T22:04:06.614Z,98343.09
2019-03-05T22:09:34.320Z,98320.08
2019-03-05T22:15:11.455Z,98335.85
2019-03-05T22:20:38.104Z,98331.92
2019-03-05T22:26:10.925Z,98320.88
2019-03-05T22:31:41.954Z,98331.69
2019-03-05T22:37:07.909Z,98348.59
2019-03-05T22:42:35.339Z,98388.07
2019-03-05T22:48:13.767Z,98393.37
2019-03-05T22:53:56.633Z,98399.52
2019-03-05T22:59:31.832Z,98418.03
2019-03-05T23:05:22.008Z,98383.94
2019-03-05T23:11:00.111Z,98387.42
2019-03-05T23:16:25.408Z,98382.73
2019-03-05T23:21:50.275Z,98399.42
2019-03-05T23:27:38.940Z,98404.06
2019-03-05T23:33:17.713Z,98408.59
2019-03-05T23:39:00.209Z,98423.48
2019-03-05T23:44:23.291Z,98414.91
2019-03-05T23:49:46.237Z,98427.85
2019-03-05T23:55:11.810Z,98436.63
